This is the latest recevied weather packets stored in our database for station/object KD8UTJ. If no packets are shown the sender has not sent any weather packets the latest 1 day(s).
| Time | Temp. | Humidity | Pressure | Rain* | Wind** | Luminosity | Snow |
|---|---|---|---|---|---|---|---|
| 1836274713 | 25.56° C | 88% | 1018.2 hPa | 0 mm | 0 m/s | 0 W/m² | - |
| 1836274566 | 25.56° C | 88% | 1018.3 hPa | 0 mm | 0 m/s | 0 W/m² | - |
| 1836274411 | 25° C | 87% | 1018.2 hPa | 0 mm | 0 m/s | 0 W/m² | - |
| 1836274265 | 25.56° C | 88% | 1018.1 hPa | 0 mm | 0 m/s | 0 W/m² | - |
| 1836274109 | 25.56° C | 88% | 1018.1 hPa | 0 mm | 0 m/s | 0 W/m² | - |
| 1778054705 | 23.33° C | 83% | 1017.6 hPa | 0 mm | 0 m/s | 0 W/m² | - |
| 1778054402 | 23.33° C | 83% | 1017.8 hPa | 0 mm | 0.45 m/s, 159° | 0 W/m² | - |
| 1778054100 | 23.89° C | 83% | 1017.7 hPa | 0 mm | 0 m/s | 0 W/m² | - |
| 1778053796 | 23.89° C | 82% | 1017.6 hPa | 0 mm | 0.45 m/s, 151° | 0 W/m² | - |
| 1778053494 | 23.89° C | 82% | 1017.7 hPa | 0 mm | 0.45 m/s, 166° | 0 W/m² | - |
| 1778053191 | 23.89° C | 82% | 1017.7 hPa | 0 mm | 0.45 m/s, 130° | 0 W/m² | - |
| 1778052889 | 23.89° C | 81% | 1017.6 hPa | 0 mm | 0.45 m/s, 101° | 0 W/m² | - |
| 1778052586 | 23.33° C | 81% | 1017.5 hPa | 0 mm | 0.89 m/s, 120° | 0 W/m² | - |
| 1778052283 | 23.89° C | 81% | 1017.6 hPa | 0 mm | 0.45 m/s, 130° | 0 W/m² | - |
| 1778051981 | 23.33° C | 81% | 1017.7 hPa | 0 mm | 0.45 m/s, 151° | 0 W/m² | - |
| 1778051679 | 23.33° C | 81% | 1017.8 hPa | 0 mm | 0.45 m/s, 152° | 0 W/m² | - |
| 1778051375 | 23.33° C | 81% | 1017.7 hPa | 0 mm | 0.89 m/s, 123° | 0 W/m² | - |
| 1778051072 | 23.33° C | 82% | 1017.8 hPa | 0 mm | 0.45 m/s, 147° | 0 W/m² | - |
| 1778050770 | 23.33° C | 82% | 1018 hPa | 0 mm | 0.45 m/s, 161° | 0 W/m² | - |
| 1778050467 | 23.33° C | 82% | 1017.9 hPa | 0 mm | 0.45 m/s, 137° | 0 W/m² | - |
| 1778050163 | 23.33° C | 82% | 1018.1 hPa | 0 mm | 0 m/s | 0 W/m² | - |
| 1778049859 | 23.89° C | 81% | 1018.1 hPa | 0 mm | 0 m/s | 0 W/m² | - |
| 1778049556 | 23.89° C | 79% | 1018.1 hPa | 0 mm | 0.45 m/s, 164° | 0 W/m² | - |
| 1778049254 | 23.89° C | 79% | 1018.2 hPa | 0 mm | 0.45 m/s, 152° | 0 W/m² | - |
| 1778048952 | 23.89° C | 79% | 1018.1 hPa | 0 mm | 0 m/s | 0 W/m² | - |
* Rain latest hour (hover to see other rain measurements)
** Current wind speed in m/s (hover to see current wind gust speed)